Kimberlin Heights, Tennessee
Current Conditions -  °F | °C
As of 12:53 AM on Thursday 23 Oct 2014 (Local Time) from KTYS Reporting Station
Clear Clear  
Wind Chill: 37°   Ceiling: Unl
Heat Index: 42°   Visibility: 10mi
Dew Point: 38°   Wind: 8mph
Humidity: 85%   Direction: 50°NE
Pressure: 30.2"   Gusts: NA
Location:  35.9105°N, 83.8544°W
Report Text: KTYS 230453Z 05007KT 10SM CLR 06/03 A3020 RMK AO2 SLP225 T00560033 401560056
Loading
Personal Weather Stations






























Interactive Weather Map New forecast layout! Learn more

10-Day Weather Forecast

Advertisements
Track Severe Weather on mobile